Terminal Aerodrome Forecast
Issued by NWS Mt. Holly, NJ

Home | Current Version | Previous Version | Text Only | Print | Product List | Glossary On
Versions: 1 2 3 4 5 6 7 8 9 10 11 12 13 14 15 16 17
000
FTAK31 PANC 240527
TAFABE
TAF
PABE 240527Z 2406/2506 03016KT 6SM -SN BKN025
      TEMPO 2406/2410 03018G24KT
     FM241200 03012KT 2SM -SN OVC025
     FM250000 03008KT 2SM -SN OVC015=

USA.gov is the U.S. government's official web portal to all federal, state and local government web resources and services.